Startpagina
METAR-TAF:

METAR-TAF

Vliegvelden :

Militair vliegvled

Solenzara, Frankrijk

breedte: 41-55N, lengte: 009-24E, hoogte: 8 m

Actueel weer

Dit bericht is 21 minuten geleden gemaakt, om 05:30 UTC
Wind 7 kt uit het westen
Temperatuur 18°C
Vochtigheid 59%
Druk 1015 hPa
Zicht 10 km of meer
geen wolken onder 1500 m en geen cumulonimbus

METAR: LFKS 020530Z AUTO 27007KT CAVOK 18/10 Q1015

Tijdstip: 07:51 (05:51 UTC)

Verwachting

Dit bericht is 3 uur en het 51 minuten geleden gemaakt, om 02:00 UTC
Verwachting geldig van 02 om 04 UTC tot 03 om 03 UTC
Wind 5 kt uit het westen
Zicht 10 km of meer
geen wolken onder 1500 m en geen cumulonimbus
Tijdelijke
van 02 om 11 UTC tot 02 om 16 UTC
Weinig wolken op 4000 ft, Stapelwolken.

TAF: LFKS 020200Z 0204/0303 27005KT CAVOK TEMPO 0211/0216 FEW040TCU

Waarnemingen en weersverwachtingen van meer dan 4000 vliegvelden (METAR en TAF).

De beschikbare stations zijn de gele en rode punten op de kaart.

Ga met uw muis naar het station om de naam te zien.

Klik dan om waarnemingen en weersverwachtingen te zien.

kaart wijzigen: klik op de groene knoppen met een zwart kruis om in te zoomen, op de groene knop met een streepje om uit te zoomen of op de groene pijlen voor aangrenzende kaarten.


METAR-TAF: